Time;durP1;ratioP1;P1;durP2;ratioP2;P2;SDS_P1;SDS_P2;PMS_P1;PMS_P2;Temp;Humidity;BMP_temperature;BMP_pressure;BME280_temperature;BME280_humidity;BME280_pressure;Samples;Min_cycle;Max_cycle;Signal;HPM_P1;HPM_P2
2022/10/23 00:00:27;;;;;;;18.70;6.37;;;13.40;99.90;;;;;;5057319;28;20450;-74
2022/10/23 00:02:54;;;;;;;14.70;5.60;;;13.40;99.90;;;;;;5037375;28;20393;-75
2022/10/23 00:05:20;;;;;;;13.75;5.63;;;13.30;99.90;;;;;;5055085;28;20409;-75
2022/10/23 00:07:50;;;;;;;20.42;5.80;;;13.30;99.90;;;;;;5055346;28;20405;-75
2022/10/23 00:10:17;;;;;;;17.48;5.47;;;13.30;99.90;;;;;;5054729;28;20803;-76
2022/10/23 00:12:43;;;;;;;18.05;5.43;;;13.30;99.90;;;;;;5054362;28;20396;-76
2022/10/23 00:15:09;;;;;;;19.35;6.10;;;13.20;99.90;;;;;;5054825;28;20385;-75
2022/10/23 00:17:34;;;;;;;18.40;5.82;;;13.30;99.90;;;;;;5054564;28;20908;-75
2022/10/23 00:20:00;;;;;;;16.87;5.83;;;13.30;99.90;;;;;;5054486;28;20397;-74
2022/10/23 00:22:26;;;;;;;15.75;5.72;;;13.20;99.90;;;;;;5053630;28;20400;-75
2022/10/23 00:24:51;;;;;;;18.65;6.20;;;13.10;99.90;;;;;;5036410;28;20404;-74
2022/10/23 00:27:17;;;;;;;21.15;6.45;;;13.10;99.90;;;;;;5054047;28;20415;-75
2022/10/23 00:29:46;;;;;;;15.77;6.45;;;13.10;99.90;;;;;;5036455;28;20447;-76
2022/10/23 00:32:11;;;;;;;17.43;5.87;;;13.10;99.90;;;;;;5054100;28;20374;-74
2022/10/23 00:34:37;;;;;;;14.40;5.83;;;13.10;99.90;;;;;;5054787;28;20458;-74
2022/10/23 00:37:02;;;;;;;13.87;5.57;;;13.10;99.90;;;;;;5053928;28;20404;-75
2022/10/23 00:39:28;;;;;;;15.60;5.60;;;13.10;99.90;;;;;;5055161;28;20483;-76
2022/10/23 00:41:54;;;;;;;13.05;5.18;;;13.00;99.90;;;;;;5054266;28;20404;-74
2022/10/23 00:44:20;;;;;;;15.65;5.90;;;13.10;99.90;;;;;;5053902;28;20551;-75
2022/10/23 00:46:45;;;;;;;14.87;6.50;;;13.10;99.90;;;;;;5053030;28;20397;-72
2022/10/23 00:49:12;;;;;;;21.05;6.30;;;13.10;99.90;;;;;;5053215;28;20877;-73
2022/10/23 00:51:50;;;;;;;10.38;5.60;;;13.10;99.90;;;;;;5055752;28;20897;-73
2022/10/23 00:54:20;;;;;;;14.68;6.93;;;13.20;99.90;;;;;;5054770;28;20745;-72
2022/10/23 00:56:46;;;;;;;13.95;6.70;;;13.10;99.90;;;;;;5035334;28;20396;-72
2022/10/23 00:59:12;;;;;;;20.27;7.72;;;13.10;99.90;;;;;;5053555;28;20467;-72
2022/10/23 01:01:38;;;;;;;13.38;6.55;;;13.00;99.90;;;;;;5052897;28;20857;-72
2022/10/23 01:04:06;;;;;;;14.20;5.65;;;13.00;99.90;;;;;;5053130;28;20420;-72
2022/10/23 01:06:36;;;;;;;17.20;7.03;;;13.10;99.90;;;;;;5053137;28;20412;-72
2022/10/23 01:09:21;;;;;;;18.10;7.18;;;13.10;99.90;;;;;;5054971;28;20878;-73
2022/10/23 01:12:16;;;;;;;22.35;6.82;;;13.10;99.90;;;;;;5052607;28;20380;-73
2022/10/23 01:15:05;;;;;;;20.40;8.50;;;13.10;99.90;;;;;;5053091;28;20797;-72
2022/10/23 01:17:49;;;;;;;16.10;7.40;;;13.10;99.90;;;;;;5052666;28;20459;-72
2022/10/23 01:20:40;;;;;;;18.30;7.60;;;13.10;99.90;;;;;;5053342;28;20418;-72
2022/10/23 01:23:29;;;;;;;18.50;5.80;;;13.10;99.90;;;;;;5053988;28;20761;-72
2022/10/23 01:26:08;;;;;;;10.60;6.00;;;13.10;99.90;;;;;;5052744;28;20897;-72
2022/10/23 01:28:37;;;;;;;15.98;5.10;;;13.10;99.90;;;;;;5052920;28;20373;-72
2022/10/23 01:31:09;;;;;;;19.75;7.18;;;13.20;99.90;;;;;;5034531;28;20397;-72
2022/10/23 01:33:43;;;;;;;16.40;5.83;;;13.10;99.90;;;;;;5052279;28;20457;-72
2022/10/23 01:36:15;;;;;;;10.95;5.78;;;13.20;99.90;;;;;;5051793;28;20382;-72
2022/10/23 01:39:10;;;;;;;16.27;5.55;;;13.20;99.90;;;;;;5066251;28;20469;-71
2022/10/23 01:41:45;;;;;;;15.32;7.10;;;13.30;99.90;;;;;;5065569;28;20386;-71
2022/10/23 01:44:15;;;;;;;20.33;8.52;;;13.30;99.90;;;;;;5068586;28;20396;-72
2022/10/23 01:46:42;;;;;;;14.95;6.80;;;13.30;99.90;;;;;;5056251;28;20505;-72
2022/10/23 01:49:11;;;;;;;17.00;7.40;;;13.30;99.90;;;;;;5052771;28;20389;-72
2022/10/23 01:51:38;;;;;;;12.57;6.07;;;13.30;99.90;;;;;;5052097;28;20913;-72
2022/10/23 01:54:09;;;;;;;15.93;5.20;;;13.40;99.90;;;;;;5052820;28;20405;-71
2022/10/23 01:56:39;;;;;;;10.82;5.28;;;13.40;99.90;;;;;;5052800;28;20468;-72
2022/10/23 01:59:09;;;;;;;13.85;5.15;;;13.40;99.90;;;;;;5052944;28;20389;-73
2022/10/23 02:01:38;;;;;;;11.88;5.00;;;13.40;99.90;;;;;;5053062;28;20900;-72
2022/10/23 02:04:08;;;;;;;11.82;5.32;;;13.40;99.90;;;;;;5052286;28;20889;-73
2022/10/23 02:06:34;;;;;;;11.63;4.90;;;13.40;99.90;;;;;;5052815;28;20378;-72
2022/10/23 02:08:59;;;;;;;10.07;4.53;;;13.30;99.90;;;;;;5052403;28;20748;-71
2022/10/23 02:11:25;;;;;;;12.80;6.22;;;13.40;99.90;;;;;;5052288;28;20378;-71
2022/10/23 02:14:14;;;;;;;12.82;4.97;;;13.40;99.90;;;;;;5053106;28;20377;-71
2022/10/23 02:16:49;;;;;;;15.40;5.95;;;13.40;99.90;;;;;;5058406;28;20381;-72
2022/10/23 02:19:30;;;;;;;12.17;5.33;;;13.30;99.90;;;;;;5042985;28;20476;-73
2022/10/23 02:22:20;;;;;;;13.95;6.40;;;13.30;99.90;;;;;;5053918;28;20893;-73
2022/10/23 02:24:57;;;;;;;9.55;5.20;;;13.30;99.90;;;;;;5060087;28;20562;-73
2022/10/23 02:27:37;;;;;;;15.32;5.68;;;13.40;99.90;;;;;;5059129;28;20369;-72
2022/10/23 02:30:06;;;;;;;18.30;7.20;;;13.40;99.90;;;;;;5051572;28;20380;-72
2022/10/23 02:32:34;;;;;;;12.50;6.35;;;13.40;99.90;;;;;;5050966;28;20888;-71
2022/10/23 02:35:00;;;;;;;12.35;5.88;;;13.50;99.90;;;;;;5051271;28;20389;-73
2022/10/23 02:37:25;;;;;;;12.68;6.32;;;13.60;99.90;;;;;;5033257;28;20458;-72
2022/10/23 02:39:52;;;;;;;16.77;6.40;;;13.60;99.90;;;;;;5033428;28;20890;-72
2022/10/23 02:42:26;;;;;;;12.10;5.88;;;13.70;99.90;;;;;;5051351;28;20746;-71
2022/10/23 02:45:08;;;;;;;13.32;6.40;;;13.70;99.90;;;;;;5080044;22;20423;-74
2022/10/23 02:47:40;;;;;;;14.60;6.20;;;13.70;99.90;;;;;;5070858;28;20388;-73
2022/10/23 02:50:21;;;;;;;12.57;4.97;;;13.80;99.90;;;;;;5071300;28;20399;-72
2022/10/23 02:53:09;;;;;;;14.18;6.90;;;13.80;99.90;;;;;;5071013;28;20387;-71
2022/10/23 02:55:52;;;;;;;11.65;5.57;;;13.80;99.90;;;;;;5051438;28;20386;-72
2022/10/23 02:58:33;;;;;;;11.60;5.23;;;13.80;99.90;;;;;;5050903;28;20389;-72
2022/10/23 03:01:12;;;;;;;14.63;6.88;;;13.80;99.90;;;;;;5050820;28;20381;-72
2022/10/23 03:03:43;;;;;;;11.70;5.10;;;13.80;99.90;;;;;;5050572;28;20392;-73
2022/10/23 03:06:09;;;;;;;12.15;4.60;;;13.70;99.90;;;;;;5051025;28;20381;-73
2022/10/23 03:08:50;;;;;;;12.07;5.10;;;13.70;99.90;;;;;;5051073;28;20385;-74
2022/10/23 03:11:16;;;;;;;16.58;5.90;;;13.70;99.90;;;;;;5051073;28;20374;-73
2022/10/23 03:13:42;;;;;;;10.57;4.33;;;13.70;99.90;;;;;;5051276;28;20789;-73
2022/10/23 03:16:07;;;;;;;8.10;4.50;;;13.70;99.90;;;;;;5051537;28;20784;-72
2022/10/23 03:18:33;;;;;;;12.53;5.20;;;13.70;99.90;;;;;;5051293;28;20726;-72
2022/10/23 03:20:58;;;;;;;12.80;4.63;;;13.70;99.90;;;;;;5051002;28;20407;-72
2022/10/23 03:23:24;;;;;;;12.93;4.30;;;13.60;99.90;;;;;;5051406;28;20386;-73
2022/10/23 03:25:51;;;;;;;12.80;4.30;;;13.60;99.90;;;;;;5051447;28;20405;-72
2022/10/23 03:28:17;;;;;;;10.70;4.50;;;13.70;99.90;;;;;;5050940;28;20381;-71
2022/10/23 03:30:42;;;;;;;16.98;5.95;;;13.70;99.90;;;;;;5050646;28;20377;-73
2022/10/23 03:33:08;;;;;;;15.27;5.17;;;13.60;99.90;;;;;;5050729;28;20397;-72
2022/10/23 03:35:33;;;;;;;14.73;5.03;;;13.70;99.90;;;;;;5051083;28;20382;-73
2022/10/23 03:37:59;;;;;;;10.43;5.10;;;13.70;99.90;;;;;;5050787;28;20385;-72
2022/10/23 03:40:24;;;;;;;11.13;5.13;;;13.70;99.90;;;;;;5049731;28;20384;-71
2022/10/23 03:42:50;;;;;;;12.80;5.17;;;13.70;99.90;;;;;;5050881;28;20457;-72
2022/10/23 03:45:16;;;;;;;10.87;4.40;;;13.70;99.90;;;;;;5051233;28;20512;-73
2022/10/23 03:47:41;;;;;;;10.30;4.50;;;13.70;99.90;;;;;;5051298;28;20423;-73
2022/10/23 03:50:08;;;;;;;8.68;4.47;;;13.70;99.90;;;;;;5050810;28;20385;-71
2022/10/23 03:52:34;;;;;;;14.03;4.80;;;13.70;99.90;;;;;;5057629;28;20550;-72
2022/10/23 03:55:00;;;;;;;12.43;4.27;;;13.70;99.90;;;;;;5064558;28;20389;-73
2022/10/23 03:57:26;;;;;;;16.40;5.30;;;13.70;99.90;;;;;;5060072;28;20408;-73
2022/10/23 03:59:51;;;;;;;11.53;4.80;;;13.80;99.90;;;;;;5063736;28;20392;-73
2022/10/23 04:02:17;;;;;;;15.98;4.28;;;13.80;99.90;;;;;;5063562;28;20744;-73
2022/10/23 04:04:43;;;;;;;14.85;4.50;;;13.80;99.90;;;;;;5061440;28;20405;-73
2022/10/23 04:07:09;;;;;;;14.93;4.77;;;13.80;99.90;;;;;;5059194;28;20384;-72
2022/10/23 04:09:34;;;;;;;11.70;4.40;;;13.80;99.90;;;;;;5054121;28;20461;-72
2022/10/23 04:12:00;;;;;;;11.82;5.13;;;13.80;99.90;;;;;;5053882;28;20503;-71
2022/10/23 04:14:26;;;;;;;12.50;4.97;;;13.80;99.90;;;;;;5053876;28;20393;-73
2022/10/23 04:16:51;;;;;;;6.85;4.32;;;13.70;99.90;;;;;;5052538;28;20392;-73
2022/10/23 04:19:17;;;;;;;14.27;4.90;;;13.70;99.90;;;;;;5053890;28;20389;-72
2022/10/23 04:21:43;;;;;;;13.40;5.80;;;13.80;99.90;;;;;;5053566;28;20766;-72
2022/10/23 04:24:09;;;;;;;14.40;4.88;;;13.70;99.90;;;;;;5053738;28;20984;-72
2022/10/23 04:26:35;;;;;;;11.45;5.38;;;13.80;99.90;;;;;;5053630;28;20465;-72
2022/10/23 04:29:00;;;;;;;12.75;4.50;;;13.80;99.90;;;;;;5053706;28;20403;-73
2022/10/23 04:31:26;;;;;;;14.90;5.82;;;13.80;99.90;;;;;;5053247;28;20393;-72
2022/10/23 04:33:52;;;;;;;13.93;5.47;;;13.80;99.90;;;;;;5053518;28;20447;-74
2022/10/23 04:36:17;;;;;;;10.83;4.90;;;13.80;99.90;;;;;;5053325;28;20468;-72
2022/10/23 04:38:43;;;;;;;9.37;5.00;;;13.80;99.90;;;;;;5053361;28;20373;-72
2022/10/23 04:41:08;;;;;;;9.63;4.60;;;13.90;99.90;;;;;;5053167;28;20397;-73
2022/10/23 04:43:34;;;;;;;11.60;5.10;;;13.90;99.90;;;;;;5053082;28;20442;-73
2022/10/23 04:46:00;;;;;;;11.18;4.40;;;13.80;99.90;;;;;;5055192;28;20389;-73
2022/10/23 04:48:25;;;;;;;11.60;4.60;;;13.80;99.90;;;;;;5050807;28;20386;-73
2022/10/23 04:50:56;;;;;;;12.73;5.50;;;13.80;99.90;;;;;;5070812;28;20388;-75
2022/10/23 04:53:21;;;;;;;11.95;5.05;;;13.70;99.90;;;;;;5069259;28;20382;-72
2022/10/23 04:55:49;;;;;;;6.30;4.30;;;13.70;99.90;;;;;;5072086;28;20446;-72
2022/10/23 04:58:14;;;;;;;13.43;4.50;;;13.70;99.90;;;;;;5055861;28;20934;-72
2022/10/23 05:00:40;;;;;;;11.70;5.60;;;13.70;99.90;;;;;;5053209;28;20389;-72
2022/10/23 05:03:05;;;;;;;9.60;5.00;;;13.70;99.90;;;;;;5053089;28;20648;-72
2022/10/23 05:05:31;;;;;;;14.02;5.35;;;13.60;99.90;;;;;;5034942;28;20476;-73
2022/10/23 05:07:56;;;;;;;11.90;4.37;;;13.70;99.90;;;;;;5018531;28;20421;-73
2022/10/23 05:10:22;;;;;;;10.90;4.53;;;13.70;99.90;;;;;;5051680;28;20385;-73
2022/10/23 05:12:48;;;;;;;11.07;4.78;;;13.70;99.90;;;;;;5054113;28;20857;-72
2022/10/23 05:15:13;;;;;;;11.98;4.50;;;13.70;99.90;;;;;;5053629;28;20746;-72
2022/10/23 05:17:42;;;;;;;7.57;3.80;;;13.70;99.90;;;;;;5054112;28;20377;-73
2022/10/23 05:20:14;;;;;;;9.98;4.30;;;13.70;99.90;;;;;;5053265;28;20888;-73
2022/10/23 05:22:42;;;;;;;9.35;4.57;;;13.70;99.90;;;;;;5052535;28;20378;-73
2022/10/23 05:25:09;;;;;;;8.73;5.07;;;13.70;99.90;;;;;;5052490;28;20474;-76
2022/10/23 05:27:34;;;;;;;13.48;4.70;;;13.70;99.90;;;;;;5051498;28;20393;-73
2022/10/23 05:30:01;;;;;;;15.02;5.88;;;13.70;99.90;;;;;;5052797;28;20389;-73
2022/10/23 05:32:30;;;;;;;12.07;4.70;;;13.70;99.90;;;;;;5052313;28;20441;-72
2022/10/23 05:34:56;;;;;;;12.70;4.30;;;13.70;99.90;;;;;;5051462;28;20855;-71
2022/10/23 05:37:22;;;;;;;8.65;4.13;;;13.70;99.90;;;;;;5052083;28;20519;-73
2022/10/23 05:39:47;;;;;;;13.45;4.90;;;13.70;99.90;;;;;;5051941;28;20421;-74
2022/10/23 05:42:13;;;;;;;14.05;4.43;;;13.70;99.90;;;;;;5040519;28;20389;-73
2022/10/23 05:44:39;;;;;;;10.60;5.00;;;13.70;99.90;;;;;;5050966;28;20809;-72
2022/10/23 05:47:05;;;;;;;10.50;5.72;;;13.60;99.90;;;;;;5051591;28;20393;-72
2022/10/23 05:49:31;;;;;;;12.23;5.50;;;13.60;99.90;;;;;;5051147;28;20393;-73
2022/10/23 05:51:56;;;;;;;15.63;4.90;;;13.60;99.90;;;;;;5052078;28;20973;-73
2022/10/23 05:54:22;;;;;;;14.83;5.80;;;13.70;99.90;;;;;;5051883;28;20491;-73
2022/10/23 05:56:47;;;;;;;14.10;4.28;;;13.70;99.90;;;;;;5051930;28;20369;-72
2022/10/23 05:59:13;;;;;;;8.83;5.10;;;13.70;99.90;;;;;;5051735;28;20862;-73
2022/10/23 06:01:38;;;;;;;12.80;6.23;;;13.70;99.90;;;;;;5051100;28;20393;-72
2022/10/23 06:04:04;;;;;;;16.10;6.10;;;13.70;99.90;;;;;;5051106;28;20434;-73
2022/10/23 06:06:31;;;;;;;13.70;5.80;;;13.70;99.90;;;;;;5033210;28;20424;-72
2022/10/23 06:08:57;;;;;;;18.10;6.57;;;13.60;99.90;;;;;;5051486;28;20393;-73
2022/10/23 06:11:22;;;;;;;8.40;4.60;;;13.60;99.90;;;;;;5051277;28;20754;-73
2022/10/23 06:13:48;;;;;;;14.05;5.40;;;13.60;99.90;;;;;;5051414;28;20381;-72
2022/10/23 06:16:23;;;;;;;12.57;5.20;;;13.60;99.90;;;;;;5051883;28;20389;-72
2022/10/23 06:18:49;;;;;;;9.77;4.18;;;13.50;99.90;;;;;;5051420;28;20382;-73
2022/10/23 06:21:15;;;;;;;9.68;4.90;;;13.60;99.90;;;;;;5050754;28;20900;-72
2022/10/23 06:23:42;;;;;;;15.50;5.60;;;13.50;99.90;;;;;;5050074;28;20866;-73
2022/10/23 06:26:11;;;;;;;9.00;4.40;;;13.60;99.90;;;;;;5051644;28;20378;-74
2022/10/23 06:28:36;;;;;;;13.35;6.20;;;13.60;99.90;;;;;;5051347;28;20421;-73
2022/10/23 06:31:10;;;;;;;8.90;4.93;;;13.60;99.90;;;;;;5051596;28;20405;-73
2022/10/23 06:33:36;;;;;;;9.07;4.70;;;13.70;99.90;;;;;;5051392;28;20431;-73
2022/10/23 06:36:04;;;;;;;13.02;5.85;;;13.70;99.90;;;;;;5051599;28;20389;-74
2022/10/23 06:38:35;;;;;;;10.65;4.65;;;13.80;99.90;;;;;;5051284;28;20408;-74
2022/10/23 06:41:01;;;;;;;12.18;5.20;;;13.80;99.90;;;;;;5051088;28;20924;-75
2022/10/23 06:43:26;;;;;;;12.00;5.40;;;13.90;99.90;;;;;;5051239;28;20409;-74
2022/10/23 06:45:52;;;;;;;9.80;5.60;;;13.90;99.90;;;;;;5051308;28;20420;-73
2022/10/23 06:48:18;;;;;;;14.48;4.10;;;14.00;99.90;;;;;;5051147;28;20476;-73
2022/10/23 06:50:43;;;;;;;8.88;4.55;;;14.00;99.90;;;;;;5051139;28;20378;-74
2022/10/23 06:53:09;;;;;;;16.20;4.90;;;14.00;99.90;;;;;;5050916;28;20393;-72
2022/10/23 06:55:34;;;;;;;9.47;5.00;;;14.10;99.90;;;;;;5051288;28;20432;-74
2022/10/23 06:58:00;;;;;;;8.48;5.13;;;14.10;99.90;;;;;;5051552;28;20404;-73
2022/10/23 07:00:25;;;;;;;11.85;5.78;;;14.20;99.90;;;;;;5032854;28;20393;-73
2022/10/23 07:02:51;;;;;;;9.77;5.13;;;14.30;99.90;;;;;;5050636;28;20874;-72
2022/10/23 07:05:18;;;;;;;12.93;5.00;;;14.30;99.90;;;;;;5050749;28;20405;-73
2022/10/23 07:07:44;;;;;;;9.98;4.70;;;14.40;99.90;;;;;;5051715;28;20389;-73
2022/10/23 07:10:09;;;;;;;11.00;3.90;;;14.40;99.90;;;;;;5052041;28;20404;-74
2022/10/23 07:12:35;;;;;;;8.30;3.80;;;14.50;99.90;;;;;;5051827;28;20374;-73
2022/10/23 07:15:01;;;;;;;9.53;3.93;;;14.50;99.90;;;;;;5051978;28;20400;-72
2022/10/23 07:17:28;;;;;;;10.90;5.07;;;14.50;99.90;;;;;;5051294;28;20467;-74
2022/10/23 07:19:53;;;;;;;9.70;4.43;;;14.60;99.90;;;;;;5051151;28;20884;-72
2022/10/23 07:22:19;;;;;;;12.65;4.78;;;14.70;98.80;;;;;;5050418;28;20393;-73
2022/10/23 07:24:44;;;;;;;10.38;4.75;;;14.70;97.40;;;;;;5032702;28;20458;-73
2022/10/23 07:27:10;;;;;;;10.80;4.10;;;14.80;95.20;;;;;;5050943;28;20413;-74
2022/10/23 07:29:36;;;;;;;7.00;4.10;;;14.90;93.50;;;;;;5032854;28;20754;-74
2022/10/23 07:32:03;;;;;;;12.60;4.80;;;14.90;91.50;;;;;;5050576;28;20366;-73
2022/10/23 07:34:29;;;;;;;10.90;5.43;;;15.00;90.40;;;;;;5054371;28;20404;-74
2022/10/23 07:36:55;;;;;;;10.25;4.53;;;15.00;90.70;;;;;;5055039;28;20385;-74
2022/10/23 07:39:21;;;;;;;13.40;5.00;;;15.10;89.30;;;;;;5036951;28;20745;-72
2022/10/23 07:41:47;;;;;;;8.40;4.67;;;15.20;88.20;;;;;;5054526;28;20389;-72
2022/10/23 07:44:13;;;;;;;10.50;4.17;;;15.30;86.00;;;;;;5059422;28;20405;-73
2022/10/23 07:46:38;;;;;;;11.57;4.10;;;15.50;83.60;;;;;;5062834;28;20462;-73
2022/10/23 07:49:04;;;;;;;12.37;4.90;;;15.50;82.90;;;;;;5064725;28;20500;-72
2022/10/23 07:51:29;;;;;;;8.98;4.30;;;15.60;82.20;;;;;;5062772;28;20377;-73
2022/10/23 07:53:55;;;;;;;8.32;4.90;;;15.70;79.80;;;;;;5057844;28;20389;-73
2022/10/23 07:56:28;;;;;;;7.43;4.53;;;15.80;77.70;;;;;;5054148;28;20452;-73
2022/10/23 07:58:54;;;;;;;14.70;4.70;;;16.00;75.50;;;;;;5054214;28;20382;-74
2022/10/23 08:01:27;;;;;;;9.65;4.75;;;16.10;73.50;;;;;;5054871;28;20862;-72
2022/10/23 08:03:53;;;;;;;8.05;4.00;;;16.30;71.10;;;;;;5039050;28;20964;-73
2022/10/23 08:06:18;;;;;;;9.87;4.17;;;16.50;68.60;;;;;;5056953;28;20434;-72
2022/10/23 08:08:44;;;;;;;7.20;4.10;;;16.70;65.80;;;;;;5056706;28;20451;-72
2022/10/23 08:11:12;;;;;;;10.80;3.43;;;16.80;63.70;;;;;;5056296;28;20388;-74
2022/10/23 08:13:38;;;;;;;11.15;4.70;;;16.90;62.50;;;;;;5057654;28;20377;-73
2022/10/23 08:16:04;;;;;;;11.13;5.30;;;17.10;62.00;;;;;;5059160;28;20416;-73
2022/10/23 08:18:29;;;;;;;6.55;2.70;;;17.20;59.70;;;;;;5058990;28;20874;-72
2022/10/23 08:21:00;;;;;;;11.40;4.27;;;17.50;57.60;;;;;;5058471;28;20419;-73
2022/10/23 08:23:27;;;;;;;7.63;3.50;;;17.90;53.30;;;;;;5056178;28;20381;-73
2022/10/23 08:26:00;;;;;;;10.30;3.20;;;18.30;50.20;;;;;;5059239;28;20408;-74
2022/10/23 08:28:27;;;;;;;7.95;4.00;;;18.50;47.90;;;;;;5059840;28;20377;-73
2022/10/23 08:30:53;;;;;;;7.18;3.45;;;18.60;46.60;;;;;;5059538;28;20794;-73
2022/10/23 08:33:19;;;;;;;7.60;3.60;;;18.60;46.50;;;;;;5058906;28;20800;-73
2022/10/23 08:35:45;;;;;;;10.80;3.90;;;18.50;46.90;;;;;;5059744;28;20421;-73
2022/10/23 08:38:11;;;;;;;10.05;3.25;;;18.40;47.60;;;;;;5059686;28;20943;-74
2022/10/23 08:40:37;;;;;;;13.33;3.70;;;18.40;45.60;;;;;;5060111;28;20519;-73
2022/10/23 08:43:10;;;;;;;9.00;3.78;;;18.50;46.50;;;;;;5058686;28;20393;-73
2022/10/23 08:45:45;;;;;;;7.47;4.00;;;18.50;46.60;;;;;;5051437;22;20537;-72
2022/10/23 08:48:27;;;;;;;10.48;3.92;;;18.50;45.70;;;;;;5055828;28;20397;-73
2022/10/23 08:50:59;;;;;;;7.35;3.53;;;18.50;46.00;;;;;;5058096;28;20691;-73
2022/10/23 08:53:31;;;;;;;12.50;3.75;;;18.60;45.50;;;;;;5057326;28;20438;-73
2022/10/23 08:56:11;;;;;;;10.75;4.05;;;18.70;44.70;;;;;;5036688;28;20418;-73
2022/10/23 08:58:49;;;;;;;8.82;3.33;;;18.90;42.50;;;;;;5035690;28;20798;-72
2022/10/23 09:01:34;;;;;;;10.70;4.43;;;18.90;42.40;;;;;;5034900;28;20398;-72
2022/10/23 09:04:01;;;;;;;11.05;4.13;;;18.90;42.00;;;;;;5038900;28;20395;-73
2022/10/23 09:06:37;;;;;;;8.80;4.15;;;19.00;42.00;;;;;;5037017;28;20461;-74
2022/10/23 09:09:40;;;;;;;15.20;4.00;;;19.00;41.20;;;;;;5034805;28;20383;-72
2022/10/23 09:12:14;;;;;;;9.88;4.82;;;19.10;40.80;;;;;;5034249;28;20418;-73
2022/10/23 09:15:04;;;;;;;11.15;5.20;;;19.10;41.50;;;;;;5034856;28;20449;-73
2022/10/23 09:17:33;;;;;;;10.95;5.10;;;19.20;40.90;;;;;;5023711;28;20394;-73
2022/10/23 09:20:11;;;;;;;12.40;3.20;;;19.20;40.60;;;;;;5034985;28;20537;-72
2022/10/23 09:22:37;;;;;;;9.93;4.53;;;19.20;39.90;;;;;;5033358;28;20415;-72
2022/10/23 09:25:14;;;;;;;5.38;3.80;;;19.30;39.50;;;;;;5033943;28;20478;-72
2022/10/23 09:27:49;;;;;;;6.65;3.35;;;19.20;39.50;;;;;;5033163;28;20557;-72
2022/10/23 09:30:36;;;;;;;7.18;4.10;;;19.10;39.70;;;;;;5032853;28;20423;-72
2022/10/23 09:33:26;;;;;;;18.90;4.95;;;19.20;39.20;;;;;;5030481;28;20442;-73
2022/10/23 09:35:59;;;;;;;7.03;3.15;;;19.20;39.80;;;;;;5029961;28;20472;-74
2022/10/23 09:38:47;;;;;;;15.13;4.25;;;19.30;39.50;;;;;;5030236;28;20684;-73
2022/10/23 09:41:21;;;;;;;7.78;2.55;;;19.40;38.90;;;;;;5009605;28;20428;-72
2022/10/23 09:44:07;;;;;;;6.47;2.50;;;19.40;37.60;;;;;;5010073;28;20400;-72
2022/10/23 09:46:46;;;;;;;7.95;2.50;;;19.50;37.70;;;;;;5028503;28;20395;-71
2022/10/23 09:49:30;;;;;;;8.35;2.10;;;19.60;36.40;;;;;;5010758;28;20753;-73
2022/10/23 09:52:06;;;;;;;7.63;2.70;;;19.60;36.80;;;;;;5019836;28;20403;-73
2022/10/23 09:54:36;;;;;;;5.75;2.35;;;19.60;37.00;;;;;;5028419;28;20434;-72
2022/10/23 09:57:18;;;;;;;7.97;2.30;;;19.70;36.10;;;;;;5040026;28;20456;-72
2022/10/23 09:59:48;;;;;;;7.70;2.30;;;19.80;36.20;;;;;;5045917;28;20745;-71
2022/10/23 10:02:26;;;;;;;8.90;2.05;;;19.80;36.20;;;;;;5046016;28;20480;-71
2022/10/23 10:04:52;;;;;;;4.80;2.20;;;19.90;35.60;;;;;;5043665;28;20451;-72
2022/10/23 10:07:21;;;;;;;6.43;2.30;;;19.90;36.10;;;;;;5032858;28;20429;-72
2022/10/23 10:09:47;;;;;;;7.70;2.45;;;20.00;35.70;;;;;;5029312;28;20395;-73
2022/10/23 10:12:55;;;;;;;9.43;2.65;;;20.10;35.90;;;;;;5029033;28;20866;-73
2022/10/23 10:15:36;;;;;;;9.95;2.30;;;20.00;35.10;;;;;;4987989;28;20451;-74
2022/10/23 10:18:09;;;;;;;9.80;2.17;;;20.10;34.90;;;;;;5026783;28;20410;-73
2022/10/23 10:20:52;;;;;;;4.82;2.22;;;20.10;35.40;;;;;;5029892;28;20399;-72
2022/10/23 10:23:38;;;;;;;5.82;2.22;;;20.10;34.80;;;;;;5029461;28;20495;-73
2022/10/23 10:26:22;;;;;;;9.88;2.22;;;20.10;35.10;;;;;;5031350;28;20406;-74
2022/10/23 10:28:59;;;;;;;8.95;2.20;;;20.10;35.10;;;;;;5029451;28;20482;-72
2022/10/23 10:31:33;;;;;;;7.77;2.40;;;20.10;35.20;;;;;;5028481;28;20408;-73
2022/10/23 10:34:04;;;;;;;6.97;2.40;;;20.10;35.90;;;;;;5028461;28;20395;-72
2022/10/23 10:36:30;;;;;;;15.07;2.70;;;20.20;34.90;;;;;;5028687;28;20755;-73
2022/10/23 10:39:02;;;;;;;8.37;2.17;;;20.20;34.50;;;;;;5029636;28;20399;-73
2022/10/23 10:41:51;;;;;;;7.68;2.78;;;20.30;34.50;;;;;;5028857;28;20806;-73
2022/10/23 10:44:31;;;;;;;7.28;2.40;;;20.30;35.00;;;;;;5029628;28;20418;-73
2022/10/23 10:47:17;;;;;;;8.17;2.20;;;20.30;35.10;;;;;;5028564;28;20557;-74
2022/10/23 10:50:13;;;;;;;6.13;2.80;;;20.20;34.50;;;;;;5027211;28;20393;-72
2022/10/23 10:52:58;;;;;;;8.65;2.63;;;20.20;34.60;;;;;;5043136;28;20402;-72
2022/10/23 10:55:40;;;;;;;8.03;2.60;;;20.40;34.40;;;;;;5030010;28;20426;-72
2022/10/23 10:58:40;;;;;;;6.40;2.35;;;20.50;33.90;;;;;;5032057;28;20399;-72
2022/10/23 11:01:27;;;;;;;5.90;2.55;;;20.70;33.50;;;;;;5010273;28;20395;-75
2022/10/23 11:03:59;;;;;;;5.32;2.42;;;20.70;33.60;;;;;;5031650;28;20740;-73
2022/10/23 11:06:29;;;;;;;8.88;2.25;;;20.70;34.00;;;;;;5034186;28;20395;-74
2022/10/23 11:08:59;;;;;;;6.00;2.40;;;20.60;33.70;;;;;;5048954;28;20832;-73
2022/10/23 11:11:34;;;;;;;4.60;2.50;;;20.40;34.10;;;;;;5041986;28;20422;-72
2022/10/23 11:14:01;;;;;;;23.50;4.20;;;20.40;34.00;;;;;;5045933;28;20425;-76
2022/10/23 11:16:35;;;;;;;12.27;3.00;;;20.30;34.40;;;;;;5047439;28;20382;-76
2022/10/23 11:19:16;;;;;;;8.77;2.78;;;20.20;34.40;;;;;;5039491;28;20387;-73
2022/10/23 11:21:49;;;;;;;7.90;2.80;;;20.20;35.10;;;;;;5036543;28;20398;-71
2022/10/23 11:24:31;;;;;;;5.72;2.33;;;20.20;34.50;;;;;;5035885;28;20414;-74
2022/10/23 11:27:04;;;;;;;9.25;2.45;;;20.40;34.30;;;;;;5055017;28;20412;-73
2022/10/23 11:30:14;;;;;;;5.60;2.53;;;20.40;34.60;;;;;;5058397;28;20385;-72
2022/10/23 11:33:01;;;;;;;11.02;2.63;;;20.40;34.20;;;;;;5055656;28;20722;-72
2022/10/23 11:36:11;;;;;;;5.53;3.40;;;20.30;34.30;;;;;;5057754;28;20381;-72
2022/10/23 11:38:39;;;;;;;6.97;2.85;;;20.20;35.10;;;;;;5056230;28;20408;-75
2022/10/23 11:41:17;;;;;;;7.57;3.08;;;20.20;35.00;;;;;;5056345;28;20394;-72
2022/10/23 11:43:49;;;;;;;7.65;3.13;;;20.10;35.20;;;;;;5057667;28;20393;-72
2022/10/23 11:46:36;;;;;;;4.80;2.55;;;20.10;35.00;;;;;;5056504;28;20444;-72
2022/10/23 11:49:04;;;;;;;6.60;3.00;;;20.00;35.40;;;;;;5057600;28;20416;-73
2022/10/23 11:51:36;;;;;;;5.75;2.70;;;20.00;35.70;;;;;;5056928;28;20880;-75
2022/10/23 11:54:10;;;;;;;8.77;3.10;;;20.10;35.70;;;;;;5057274;28;20381;-72
2022/10/23 11:56:37;;;;;;;7.70;2.55;;;20.10;34.90;;;;;;5057413;28;20454;-74
2022/10/23 11:59:32;;;;;;;9.38;2.70;;;20.30;35.10;;;;;;5059890;28;20381;-73
2022/10/23 12:02:02;;;;;;;5.18;2.20;;;20.50;34.40;;;;;;5060010;28;20464;-72
2022/10/23 12:04:53;;;;;;;4.72;2.20;;;20.70;33.10;;;;;;5064254;28;20436;-73
2022/10/23 12:07:34;;;;;;;6.17;3.00;;;20.90;32.50;;;;;;5066042;28;20385;-73
2022/10/23 12:10:06;;;;;;;10.73;3.15;;;21.00;32.00;;;;;;5060203;28;20409;-73
2022/10/23 12:12:42;;;;;;;11.10;2.80;;;21.10;31.60;;;;;;5061042;28;20480;-73
2022/10/23 12:15:10;;;;;;;8.57;2.60;;;21.20;31.60;;;;;;5072439;28;20730;-72
2022/10/23 12:17:38;;;;;;;6.88;2.40;;;21.10;31.20;;;;;;5071331;28;20389;-71
2022/10/23 12:20:07;;;;;;;9.27;2.80;;;21.20;31.20;;;;;;5068600;28;20396;-72
2022/10/23 12:22:56;;;;;;;8.75;2.38;;;21.10;31.20;;;;;;5068697;28;20377;-72
2022/10/23 12:25:36;;;;;;;4.63;2.10;;;21.20;31.30;;;;;;5059210;28;20405;-73
2022/10/23 12:28:25;;;;;;;5.72;2.50;;;21.10;31.70;;;;;;5060346;28;20396;-72
2022/10/23 12:31:03;;;;;;;9.40;2.42;;;21.20;31.60;;;;;;5070306;28;20385;-71
2022/10/23 12:33:40;;;;;;;4.88;2.30;;;21.10;31.50;;;;;;5070157;28;20476;-74
2022/10/23 12:36:35;;;;;;;9.82;2.75;;;21.00;31.90;;;;;;5070041;28;20393;-72
2022/10/23 12:39:01;;;;;;;7.10;3.00;;;21.00;31.90;;;;;;5062661;28;20389;-73
2022/10/23 12:41:32;;;;;;;7.10;2.40;;;21.00;31.90;;;;;;5052524;28;20731;-72
2022/10/23 12:44:02;;;;;;;9.02;2.67;;;21.00;31.90;;;;;;5054937;28;20389;-73
2022/10/23 12:46:32;;;;;;;7.80;2.80;;;21.00;31.80;;;;;;5054753;28;20926;-75
2022/10/23 12:49:00;;;;;;;7.57;3.00;;;21.00;31.70;;;;;;5053846;28;20472;-73
2022/10/23 12:51:31;;;;;;;12.32;2.80;;;21.00;32.20;;;;;;5053324;28;20382;-73
2022/10/23 12:53:57;;;;;;;9.57;2.70;;;21.10;31.80;;;;;;5055162;28;20390;-73
2022/10/23 12:56:25;;;;;;;6.00;2.87;;;21.20;31.60;;;;;;5055291;28;20451;-73
2022/10/23 12:58:54;;;;;;;6.60;2.45;;;21.20;31.60;;;;;;5055367;28;20382;-73
2022/10/23 13:01:28;;;;;;;11.65;2.92;;;21.20;31.40;;;;;;5053261;28;20451;-73